Time;durP1;ratioP1;P1;durP2;ratioP2;P2;SDS_P1;SDS_P2;PMS_P1;PMS_P2;Temp;Humidity;BMP_temperature;BMP_pressure;BME280_temperature;BME280_humidity;BME280_pressure;Samples;Min_cycle;Max_cycle;Signal;HPM_P1;HPM_P2
2023/09/28 00:02:15;;;;;;;6.18;3.70;;;;;;;;;;5008272;28;20037;-74
2023/09/28 00:05:00;;;;;;;8.70;3.88;;;;;;;;;;5008523;28;20041;-77
2023/09/28 00:07:45;;;;;;;7.50;2.75;;;;;;;;;;5009141;28;20030;-76
2023/09/28 00:10:31;;;;;;;5.82;3.40;;;;;;;;;;5007676;28;20029;-75
2023/09/28 00:13:16;;;;;;;8.07;3.50;;;;;;;;;;5006944;28;20068;-77
2023/09/28 00:16:01;;;;;;;7.93;3.53;;;;;;;;;;5009004;28;20080;-76
2023/09/28 00:18:46;;;;;;;6.03;3.65;;;;;;;;;;5008683;28;20448;-73
2023/09/28 00:21:32;;;;;;;7.63;3.85;;;;;;;;;;4981351;28;20057;-69
2023/09/28 00:24:17;;;;;;;5.35;3.58;;;;;;;;;;5008642;28;20029;-70
2023/09/28 00:27:02;;;;;;;6.80;3.60;;;;;;;;;;4996019;28;20030;-68
2023/09/28 00:29:47;;;;;;;6.10;3.45;;;;;;;;;;5008639;28;20030;-68
2023/09/28 00:32:33;;;;;;;6.55;3.72;;;;;;;;;;5009137;28;20030;-69
2023/09/28 00:35:18;;;;;;;5.45;3.17;;;;;;;;;;5008497;28;20482;-69
2023/09/28 00:38:05;;;;;;;6.78;4.22;;;;;;;;;;5008796;28;20095;-72
2023/09/28 00:40:50;;;;;;;9.70;4.75;;;;;;;;;;5008604;28;20033;-73
2023/09/28 00:43:35;;;;;;;7.07;3.75;;;;;;;;;;4994675;28;20073;-73
2023/09/28 00:46:21;;;;;;;7.47;3.90;;;;;;;;;;5008724;28;20018;-73
2023/09/28 00:49:06;;;;;;;6.25;3.67;;;;;;;;;;5007569;28;20040;-74
2023/09/28 00:51:52;;;;;;;4.63;3.10;;;;;;;;;;5008292;28;20448;-74
2023/09/28 00:54:38;;;;;;;7.63;3.72;;;;;;;;;;5008772;28;20137;-74
2023/09/28 00:57:23;;;;;;;5.75;3.55;;;;;;;;;;5007645;28;20080;-69
2023/09/28 01:00:26;;;;;;;8.10;4.00;;;;;;;;;;5008381;28;20036;-73
2023/09/28 01:03:11;;;;;;;6.68;3.35;;;;;;;;;;5008564;28;20042;-74
2023/09/28 01:05:58;;;;;;;4.55;2.80;;;;;;;;;;5008253;28;20034;-74
2023/09/28 01:08:43;;;;;;;8.00;3.63;;;;;;;;;;5008377;28;20048;-74
2023/09/28 01:11:28;;;;;;;4.82;3.10;;;;;;;;;;5007938;28;20029;-72
2023/09/28 01:14:13;;;;;;;5.28;3.38;;;;;;;;;;5008391;28;20380;-68
2023/09/28 01:16:58;;;;;;;4.78;3.17;;;;;;;;;;5009987;28;20025;-76
2023/09/28 01:19:44;;;;;;;5.68;3.58;;;;;;;;;;5012199;28;20124;-74
2023/09/28 01:22:29;;;;;;;9.82;4.07;;;;;;;;;;5012136;28;20101;-76
2023/09/28 01:25:15;;;;;;;5.00;3.33;;;;;;;;;;5012397;28;20040;-74
2023/09/28 01:28:00;;;;;;;6.63;3.63;;;;;;;;;;5012042;28;20508;-76
2023/09/28 01:30:46;;;;;;;7.72;3.50;;;;;;;;;;5011082;28;20072;-76
2023/09/28 01:33:31;;;;;;;6.72;3.75;;;;;;;;;;5011452;28;20519;-73
2023/09/28 01:36:16;;;;;;;7.43;4.18;;;;;;;;;;5011975;28;20080;-69
2023/09/28 01:39:02;;;;;;;7.95;3.45;;;;;;;;;;5011613;28;20041;-69
2023/09/28 01:41:47;;;;;;;6.57;3.83;;;;;;;;;;5011724;28;20034;-69
2023/09/28 01:44:33;;;;;;;6.00;3.50;;;;;;;;;;5005074;28;20034;-68
2023/09/28 01:47:18;;;;;;;6.22;3.70;;;;;;;;;;5016988;28;20029;-69
2023/09/28 01:50:03;;;;;;;7.00;3.55;;;;;;;;;;5011327;28;20493;-68
2023/09/28 01:52:49;;;;;;;4.53;3.15;;;;;;;;;;5011267;28;20021;-69
2023/09/28 01:55:34;;;;;;;7.22;3.92;;;;;;;;;;5016603;28;20046;-76
2023/09/28 01:58:19;;;;;;;8.77;4.35;;;;;;;;;;5012077;28;20025;-78
2023/09/28 02:01:04;;;;;;;7.35;3.63;;;;;;;;;;5012322;28;20377;-76
2023/09/28 02:03:50;;;;;;;6.38;3.30;;;;;;;;;;5012681;28;20022;-77
2023/09/28 02:06:35;;;;;;;6.95;3.22;;;;;;;;;;4999204;28;20034;-77
2023/09/28 02:09:21;;;;;;;6.97;3.40;;;;;;;;;;5011948;28;20041;-73
2023/09/28 02:12:06;;;;;;;6.22;3.97;;;;;;;;;;5010961;28;20591;-77
2023/09/28 02:14:52;;;;;;;13.70;4.30;;;;;;;;;;5010950;28;20037;-78
2023/09/28 02:17:37;;;;;;;6.70;3.85;;;;;;;;;;5010758;28;20026;-78
2023/09/28 02:20:23;;;;;;;6.30;3.67;;;;;;;;;;5010206;28;20503;-75
2023/09/28 02:23:09;;;;;;;6.53;3.53;;;;;;;;;;5010754;28;20433;-76
2023/09/28 02:25:54;;;;;;;6.95;3.38;;;;;;;;;;4991125;28;20417;-79
2023/09/28 02:28:39;;;;;;;7.82;3.78;;;;;;;;;;5010336;28;20050;-71
2023/09/28 02:31:25;;;;;;;8.40;3.97;;;;;;;;;;5010308;28;20508;-72
2023/09/28 02:34:10;;;;;;;7.05;3.60;;;;;;;;;;5010970;28;20076;-75
2023/09/28 02:36:55;;;;;;;8.85;3.83;;;;;;;;;;5010714;28;20092;-72
2023/09/28 02:39:41;;;;;;;7.32;3.78;;;;;;;;;;5010128;28;20073;-72
2023/09/28 02:42:26;;;;;;;7.20;3.45;;;;;;;;;;5010839;28;20057;-72
2023/09/28 02:45:11;;;;;;;5.72;3.38;;;;;;;;;;5010454;28;20438;-72
2023/09/28 02:47:56;;;;;;;11.43;3.58;;;;;;;;;;5013171;28;20026;-71
2023/09/28 02:50:42;;;;;;;5.03;3.22;;;;;;;;;;5010504;28;20551;-80
2023/09/28 02:53:27;;;;;;;8.88;4.10;;;;;;;;;;5013265;28;20036;-77
2023/09/28 02:56:13;;;;;;;8.57;4.53;;;;;;;;;;4999817;28;20484;-80
2023/09/28 02:58:59;;;;;;;7.25;3.75;;;;;;;;;;5011196;28;20044;-77
2023/09/28 03:01:44;;;;;;;6.88;3.15;;;;;;;;;;5011189;28;20099;-77
2023/09/28 03:04:33;;;;;;;7.43;3.78;;;;;;;;;;5009303;28;20038;-69
2023/09/28 03:07:19;;;;;;;6.63;3.75;;;;;;;;;;5010011;28;20416;-76
2023/09/28 03:10:05;;;;;;;7.30;3.65;;;;;;;;;;4995346;28;20033;-74
2023/09/28 03:12:51;;;;;;;5.85;3.10;;;;;;;;;;5007490;28;20057;-78
2023/09/28 03:15:38;;;;;;;7.88;4.05;;;;;;;;;;5007089;28;20461;-80
2023/09/28 03:18:24;;;;;;;7.88;3.83;;;;;;;;;;5007066;28;20053;-79
2023/09/28 03:21:09;;;;;;;7.15;3.65;;;;;;;;;;5007198;28;20501;-78
2023/09/28 03:24:01;;;;;;;5.90;3.47;;;;;;;;;;5009520;28;20725;-67
2023/09/28 03:26:46;;;;;;;5.50;3.38;;;;;;;;;;5008133;28;20042;-73
2023/09/28 03:29:31;;;;;;;7.32;4.00;;;;;;;;;;5009978;28;20036;-75
2023/09/28 03:32:17;;;;;;;11.85;4.07;;;;;;;;;;5009875;28;20196;-74
2023/09/28 03:35:02;;;;;;;6.68;3.63;;;;;;;;;;5009677;28;20038;-72
2023/09/28 03:37:48;;;;;;;6.07;3.80;;;;;;;;;;5009546;28;20037;-74
2023/09/28 03:40:34;;;;;;;5.32;3.25;;;;;;;;;;5008808;28;20069;-79
2023/09/28 03:43:19;;;;;;;7.20;3.75;;;;;;;;;;5009384;28;20069;-70
2023/09/28 03:46:04;;;;;;;6.20;3.30;;;;;;;;;;4989652;28;20084;-71
2023/09/28 03:48:50;;;;;;;6.97;3.58;;;;;;;;;;5011465;28;20033;-68
2023/09/28 03:51:35;;;;;;;7.32;4.10;;;;;;;;;;5009141;28;20038;-68
2023/09/28 03:54:20;;;;;;;7.18;3.90;;;;;;;;;;5010837;28;20117;-71
2023/09/28 03:57:06;;;;;;;5.30;3.30;;;;;;;;;;5009242;28;20073;-69
2023/09/28 03:59:51;;;;;;;6.40;3.35;;;;;;;;;;5008840;28;20041;-74
2023/09/28 04:02:36;;;;;;;9.23;3.58;;;;;;;;;;5009118;28;20420;-69
2023/09/28 04:05:23;;;;;;;6.78;3.35;;;;;;;;;;5009130;28;20026;-70
2023/09/28 04:08:08;;;;;;;5.53;3.33;;;;;;;;;;5008806;28;20514;-71
2023/09/28 04:10:55;;;;;;;7.20;3.90;;;;;;;;;;5009019;28;20038;-71
2023/09/28 04:13:40;;;;;;;8.15;3.72;;;;;;;;;;4989403;28;20171;-69
2023/09/28 04:16:25;;;;;;;7.70;3.55;;;;;;;;;;5006032;28;20034;-68
2023/09/28 04:19:10;;;;;;;5.65;3.35;;;;;;;;;;5008850;28;20033;-70
2023/09/28 04:21:56;;;;;;;7.53;3.67;;;;;;;;;;5008570;28;20041;-71
2023/09/28 04:24:41;;;;;;;6.53;3.72;;;;;;;;;;5007231;28;20069;-71
2023/09/28 04:27:26;;;;;;;9.38;4.45;;;;;;;;;;5008867;28;20105;-70
2023/09/28 04:30:12;;;;;;;8.77;3.80;;;;;;;;;;5008936;28;20461;-71
2023/09/28 04:32:57;;;;;;;5.80;3.47;;;;;;;;;;5008647;28;20083;-72
2023/09/28 04:35:42;;;;;;;7.20;3.33;;;;;;;;;;5008753;28;20034;-71
2023/09/28 04:38:27;;;;;;;8.55;4.07;;;;;;;;;;5008653;28;20096;-78
2023/09/28 04:41:13;;;;;;;11.52;4.65;;;;;;;;;;5008546;28;20045;-72
2023/09/28 04:43:58;;;;;;;11.38;5.45;;;;;;;;;;5008672;28;20030;-72
2023/09/28 04:46:43;;;;;;;6.72;3.90;;;;;;;;;;5011082;28;20124;-71
2023/09/28 04:49:29;;;;;;;6.40;3.33;;;;;;;;;;5008714;28;20037;-71
2023/09/28 04:52:14;;;;;;;7.60;3.97;;;;;;;;;;5008527;28;20070;-71
2023/09/28 04:54:59;;;;;;;8.82;3.63;;;;;;;;;;5010008;28;20022;-71
2023/09/28 04:57:45;;;;;;;11.05;3.28;;;;;;;;;;5007965;28;20577;-78
2023/09/28 05:00:32;;;;;;;6.95;3.88;;;;;;;;;;5008662;28;20050;-77
2023/09/28 05:03:18;;;;;;;6.32;3.38;;;;;;;;;;4989894;28;20034;-77
2023/09/28 05:06:04;;;;;;;6.60;3.20;;;;;;;;;;5004093;28;20037;-78
2023/09/28 05:08:50;;;;;;;7.38;4.63;;;;;;;;;;4988914;28;20018;-78
2023/09/28 05:11:35;;;;;;;8.00;4.22;;;;;;;;;;5007377;28;20034;-79
2023/09/28 05:14:24;;;;;;;6.68;3.60;;;;;;;;;;5008301;28;20026;-79
2023/09/28 05:17:09;;;;;;;5.70;3.53;;;;;;;;;;5008353;28;20096;-71
2023/09/28 05:19:54;;;;;;;8.00;4.10;;;;;;;;;;5007862;28;20023;-70
2023/09/28 05:22:40;;;;;;;8.50;4.40;;;;;;;;;;5008437;28;20041;-71
2023/09/28 05:25:25;;;;;;;10.05;4.28;;;;;;;;;;5006672;28;20382;-69
2023/09/28 05:28:10;;;;;;;7.20;3.42;;;;;;;;;;5007866;28;20225;-70
2023/09/28 05:30:56;;;;;;;9.32;4.97;;;;;;;;;;5007893;28;20049;-70
2023/09/28 05:33:41;;;;;;;7.68;3.83;;;;;;;;;;5009669;28;20030;-80
2023/09/28 05:36:26;;;;;;;7.05;3.90;;;;;;;;;;5007962;28;20132;-71
2023/09/28 05:39:12;;;;;;;7.55;3.72;;;;;;;;;;4996487;28;20493;-71
2023/09/28 05:41:57;;;;;;;8.38;4.32;;;;;;;;;;5007998;28;20026;-70
2023/09/28 05:44:43;;;;;;;7.43;4.15;;;;;;;;;;5008143;28;20038;-70
2023/09/28 05:47:29;;;;;;;5.80;3.83;;;;;;;;;;4991052;28;20030;-70
2023/09/28 05:50:15;;;;;;;8.15;4.03;;;;;;;;;;5004405;28;20097;-71
2023/09/28 05:53:00;;;;;;;7.85;3.78;;;;;;;;;;5008043;28;20470;-78
2023/09/28 05:55:46;;;;;;;9.05;4.18;;;;;;;;;;5007906;28;20026;-76
2023/09/28 05:58:31;;;;;;;9.43;4.20;;;;;;;;;;5008077;28;20176;-79
2023/09/28 06:01:17;;;;;;;9.25;4.28;;;;;;;;;;5007857;28;20066;-78
2023/09/28 06:04:04;;;;;;;7.80;4.10;;;;;;;;;;5010676;28;20481;-78
2023/09/28 06:06:50;;;;;;;8.23;4.40;;;;;;;;;;5011420;28;20073;-78
2023/09/28 06:09:38;;;;;;;7.80;4.22;;;;;;;;;;5011266;28;20389;-69
2023/09/28 06:12:24;;;;;;;8.32;4.45;;;;;;;;;;5011333;28;20485;-80
2023/09/28 06:15:09;;;;;;;8.30;3.97;;;;;;;;;;4998935;28;20022;-79
2023/09/28 06:17:54;;;;;;;8.27;3.70;;;;;;;;;;5012287;28;20030;-80
2023/09/28 06:20:41;;;;;;;7.18;3.90;;;;;;;;;;5012311;28;20037;-81
2023/09/28 06:23:26;;;;;;;8.45;4.45;;;;;;;;;;5011760;28;20050;-80
2023/09/28 06:26:12;;;;;;;7.90;4.18;;;;;;;;;;5009936;28;20075;-82
2023/09/28 06:28:57;;;;;;;6.93;3.65;;;;;;;;;;5009468;28;20026;-71
2023/09/28 06:31:42;;;;;;;10.73;4.25;;;;;;;;;;5010288;28;20358;-70
2023/09/28 06:34:28;;;;;;;10.82;4.30;;;;;;;;;;4991412;28;20030;-70
2023/09/28 06:37:13;;;;;;;7.32;4.00;;;;;;;;;;5010890;28;20037;-70
2023/09/28 06:39:58;;;;;;;7.97;4.28;;;;;;;;;;5010518;28;20065;-70
2023/09/28 06:42:44;;;;;;;9.07;4.25;;;;;;;;;;5010672;28;20388;-70
2023/09/28 06:45:30;;;;;;;9.02;4.57;;;;;;;;;;5010135;28;20029;-70
2023/09/28 06:48:15;;;;;;;7.47;4.30;;;;;;;;;;5013633;28;20032;-72
2023/09/28 06:51:00;;;;;;;10.30;4.45;;;;;;;;;;5010487;28;20109;-74
2023/09/28 06:53:45;;;;;;;9.60;4.28;;;;;;;;;;5011560;28;20025;-74
2023/09/28 06:56:30;;;;;;;6.80;3.75;;;;;;;;;;5010317;28;20034;-75
2023/09/28 06:59:16;;;;;;;8.73;4.03;;;;;;;;;;5009799;28;20042;-73
2023/09/28 07:02:02;;;;;;;10.02;4.32;;;;;;;;;;5010076;28;20036;-73
2023/09/28 07:04:47;;;;;;;4.88;3.42;;;;;;;;;;5010136;28;20040;-69
2023/09/28 07:07:32;;;;;;;9.13;3.88;;;;;;;;;;5010264;28;20038;-74
2023/09/28 07:10:17;;;;;;;12.30;4.85;;;;;;;;;;5010192;28;20040;-75
2023/09/28 07:13:06;;;;;;;8.55;3.97;;;;;;;;;;5009811;28;20384;-73
2023/09/28 07:15:51;;;;;;;10.23;3.60;;;;;;;;;;5001868;28;20046;-74
2023/09/28 07:18:37;;;;;;;10.35;4.25;;;;;;;;;;4997042;28;20132;-72
2023/09/28 07:21:22;;;;;;;12.02;4.38;;;;;;;;;;5010097;28;20426;-75
2023/09/28 07:24:07;;;;;;;8.05;4.13;;;;;;;;;;5009800;28;20056;-69
2023/09/28 07:26:53;;;;;;;10.27;3.88;;;;;;;;;;5009880;28;20029;-78
2023/09/28 07:29:38;;;;;;;7.60;4.10;;;;;;;;;;5010049;28;20037;-79
2023/09/28 07:32:23;;;;;;;9.32;4.65;;;;;;;;;;4998875;28;20145;-80
2023/09/28 07:35:11;;;;;;;9.73;4.47;;;;;;;;;;5010533;28;20076;-80
2023/09/28 07:37:57;;;;;;;9.30;4.00;;;;;;;;;;5010018;28;20485;-79
2023/09/28 07:40:42;;;;;;;9.95;4.30;;;;;;;;;;5009725;28;20030;-79
2023/09/28 07:43:27;;;;;;;8.00;4.35;;;;;;;;;;5009509;28;20068;-77
2023/09/28 07:46:16;;;;;;;9.20;5.15;;;;;;;;;;4999887;28;20026;-79
2023/09/28 07:49:01;;;;;;;7.70;3.78;;;;;;;;;;5009304;28;20029;-79
2023/09/28 07:51:46;;;;;;;7.95;4.07;;;;;;;;;;5008744;28;20029;-77
2023/09/28 07:54:31;;;;;;;8.43;3.80;;;;;;;;;;5010410;28;20056;-77
2023/09/28 07:57:17;;;;;;;8.50;4.72;;;;;;;;;;5009101;28;20041;-76
2023/09/28 08:00:03;;;;;;;7.25;3.88;;;;;;;;;;5008776;28;20378;-70
2023/09/28 08:02:49;;;;;;;11.20;4.00;;;;;;;;;;5009096;28;20038;-70
2023/09/28 08:05:34;;;;;;;10.02;5.03;;;;;;;;;;5009152;28;20037;-70
2023/09/28 08:08:19;;;;;;;8.85;4.03;;;;;;;;;;5008984;28;20487;-69
2023/09/28 08:11:05;;;;;;;9.02;4.55;;;;;;;;;;5009182;28;20088;-69
2023/09/28 08:13:50;;;;;;;7.97;3.67;;;;;;;;;;5008609;28;20040;-70
2023/09/28 08:16:35;;;;;;;8.15;4.25;;;;;;;;;;5008566;28;20030;-69
2023/09/28 08:19:21;;;;;;;5.53;3.63;;;;;;;;;;5008564;28;20049;-69
2023/09/28 08:22:06;;;;;;;9.70;3.95;;;;;;;;;;5008662;28;20025;-70
2023/09/28 08:24:51;;;;;;;7.70;3.65;;;;;;;;;;5006480;28;20034;-70
2023/09/28 08:27:36;;;;;;;7.90;3.58;;;;;;;;;;5008227;28;20469;-70
2023/09/28 08:30:21;;;;;;;8.15;3.92;;;;;;;;;;5008422;28;20037;-69
2023/09/28 08:33:08;;;;;;;6.80;3.42;;;;;;;;;;5008524;28;20034;-70
2023/09/28 08:35:53;;;;;;;7.63;3.72;;;;;;;;;;5008774;28;20037;-71
2023/09/28 08:38:38;;;;;;;6.22;3.38;;;;;;;;;;5008462;28;20040;-80
2023/09/28 08:41:27;;;;;;;6.82;3.88;;;;;;;;;;5008943;28;20061;-79
2023/09/28 08:44:12;;;;;;;7.03;3.70;;;;;;;;;;5009026;28;20042;-80
2023/09/28 08:46:58;;;;;;;8.60;3.72;;;;;;;;;;5011815;28;20091;-79
2023/09/28 08:49:46;;;;;;;10.35;4.15;;;;;;;;;;5008991;28;20129;-79
2023/09/28 08:52:32;;;;;;;7.13;3.72;;;;;;;;;;5009127;28;20456;-78
2023/09/28 08:55:18;;;;;;;9.30;3.80;;;;;;;;;;5009868;28;20048;-79
2023/09/28 08:58:03;;;;;;;6.05;3.20;;;;;;;;;;5007841;28;20085;-69
2023/09/28 09:00:49;;;;;;;7.82;4.03;;;;;;;;;;5007923;28;20448;-70
2023/09/28 09:03:34;;;;;;;8.32;4.28;;;;;;;;;;5008479;28;20032;-69
2023/09/28 09:06:20;;;;;;;8.10;3.65;;;;;;;;;;5008504;28;20077;-68
2023/09/28 09:09:06;;;;;;;6.95;4.13;;;;;;;;;;5008406;28;20036;-68
2023/09/28 09:11:52;;;;;;;8.10;3.72;;;;;;;;;;5008212;28;20522;-70
2023/09/28 09:14:40;;;;;;;6.25;3.85;;;;;;;;;;5008165;28;20041;-77
2023/09/28 09:17:33;;;;;;;10.15;3.85;;;;;;;;;;5008331;28;20038;-68
2023/09/28 09:20:18;;;;;;;4.43;2.95;;;;;;;;;;5008400;28;20437;-68
2023/09/28 09:23:13;;;;;;;6.97;3.42;;;;;;;;;;5008149;28;20029;-70
2023/09/28 09:25:58;;;;;;;6.80;3.88;;;;;;;;;;5006764;28;20037;-68
2023/09/28 09:28:46;;;;;;;9.05;3.85;;;;;;;;;;5008553;28;20688;-69
2023/09/28 09:31:33;;;;;;;5.63;3.42;;;;;;;;;;5008203;28;20046;-73
2023/09/28 09:34:19;;;;;;;6.25;3.22;;;;;;;;;;5008483;28;20244;-70
2023/09/28 09:37:06;;;;;;;6.97;3.65;;;;;;;;;;5008105;28;20050;-69
2023/09/28 09:39:51;;;;;;;7.45;3.53;;;;;;;;;;5011544;28;20042;-70
2023/09/28 09:42:36;;;;;;;9.50;3.70;;;;;;;;;;5011974;28;20500;-69
2023/09/28 09:45:23;;;;;;;7.68;3.85;;;;;;;;;;5011674;28;20100;-70
2023/09/28 09:48:09;;;;;;;7.40;4.05;;;;;;;;;;5014566;28;20038;-70
2023/09/28 09:50:55;;;;;;;10.23;4.40;;;;;;;;;;5011792;28;20029;-73
2023/09/28 09:53:42;;;;;;;8.10;3.42;;;;;;;;;;5013044;28;20029;-71
2023/09/28 09:56:28;;;;;;;11.82;3.78;;;;;;;;;;5011572;28;20040;-69
2023/09/28 09:59:17;;;;;;;7.03;3.53;;;;;;;;;;5011323;28;20045;-70
2023/09/28 10:02:03;;;;;;;5.53;3.42;;;;;;;;;;5011523;28;20037;-72
2023/09/28 10:04:49;;;;;;;6.55;3.47;;;;;;;;;;5011249;28;20438;-69
2023/09/28 10:07:36;;;;;;;10.13;3.33;;;;;;;;;;5011381;28;20030;-70
2023/09/28 10:10:22;;;;;;;5.90;3.50;;;;;;;;;;5011334;28;20052;-78
2023/09/28 10:13:08;;;;;;;6.43;3.90;;;;;;;;;;5011266;28;20036;-78
2023/09/28 10:15:53;;;;;;;7.95;3.60;;;;;;;;;;5011355;28;20120;-78
2023/09/28 10:18:40;;;;;;;4.97;3.40;;;;;;;;;;5011360;28;20037;-77
2023/09/28 10:21:25;;;;;;;8.43;3.75;;;;;;;;;;5011285;28;20331;-78
2023/09/28 10:24:12;;;;;;;8.68;3.40;;;;;;;;;;5011127;28;20061;-78
2023/09/28 10:27:05;;;;;;;9.60;3.33;;;;;;;;;;5011238;28;20045;-71
2023/09/28 10:30:11;;;;;;;5.70;3.50;;;;;;;;;;5010931;28;20038;-74
2023/09/28 10:32:57;;;;;;;7.07;3.30;;;;;;;;;;5010566;28;20500;-74
2023/09/28 10:35:43;;;;;;;7.65;3.92;;;;;;;;;;5011157;28;20303;-75
2023/09/28 10:38:28;;;;;;;5.90;3.78;;;;;;;;;;5010206;28;20038;-75
2023/09/28 10:41:16;;;;;;;5.20;3.13;;;;;;;;;;5010840;28;20242;-76
2023/09/28 10:44:10;;;;;;;10.60;3.00;;;;;;;;;;5010729;28;20037;-78
2023/09/28 10:46:55;;;;;;;6.32;3.67;;;;;;;;;;5013474;28;20026;-72
2023/09/28 10:49:40;;;;;;;7.70;3.55;;;;;;;;;;5010293;28;20357;-74
2023/09/28 10:52:25;;;;;;;7.72;3.30;;;;;;;;;;5010270;28;20049;-74
2023/09/28 10:55:11;;;;;;;5.75;3.50;;;;;;;;;;5011842;28;20065;-76
2023/09/28 10:58:02;;;;;;;8.23;4.65;;;;;;;;;;5010174;28;20021;-73
2023/09/28 11:00:47;;;;;;;10.40;4.20;;;;;;;;;;5010019;28;20492;-74
2023/09/28 11:03:33;;;;;;;6.30;3.15;;;;;;;;;;5010577;28;20037;-70
2023/09/28 11:06:18;;;;;;;6.60;3.53;;;;;;;;;;5010394;28;20121;-79
2023/09/28 11:09:04;;;;;;;8.07;4.30;;;;;;;;;;5010023;28;20513;-77
2023/09/28 11:11:50;;;;;;;11.45;4.30;;;;;;;;;;5010890;28;20124;-77
2023/09/28 11:14:40;;;;;;;9.25;3.78;;;;;;;;;;5006554;28;20493;-78
2023/09/28 11:17:26;;;;;;;8.10;4.20;;;;;;;;;;5006788;28;20489;-78
2023/09/28 11:20:11;;;;;;;10.30;3.75;;;;;;;;;;5006975;28;20045;-78
2023/09/28 11:22:57;;;;;;;12.07;3.72;;;;;;;;;;5009119;28;20030;-69
2023/09/28 11:25:42;;;;;;;7.28;3.92;;;;;;;;;;5008772;28;20073;-79
2023/09/28 11:28:29;;;;;;;5.45;3.28;;;;;;;;;;5008766;28;20044;-76
2023/09/28 11:31:15;;;;;;;5.82;3.47;;;;;;;;;;5008685;28;20065;-77
2023/09/28 11:34:00;;;;;;;10.90;4.15;;;;;;;;;;5009820;28;20034;-77
2023/09/28 11:36:45;;;;;;;9.40;3.50;;;;;;;;;;5009137;28;20064;-77
2023/09/28 11:39:31;;;;;;;9.05;3.85;;;;;;;;;;5009280;28;20045;-78
2023/09/28 11:42:18;;;;;;;8.95;3.80;;;;;;;;;;5009753;28;20038;-66
2023/09/28 11:45:03;;;;;;;7.75;3.92;;;;;;;;;;5009660;28;20109;-69
2023/09/28 11:47:49;;;;;;;7.00;3.97;;;;;;;;;;5012313;28;20026;-68
2023/09/28 11:50:34;;;;;;;8.27;4.25;;;;;;;;;;5009256;28;20037;-70
2023/09/28 11:53:19;;;;;;;8.50;3.78;;;;;;;;;;5009828;28;20437;-70
2023/09/28 11:56:04;;;;;;;7.80;3.97;;;;;;;;;;4997279;28;20069;-69
2023/09/28 11:58:49;;;;;;;7.05;3.70;;;;;;;;;;5009199;28;20038;-68
2023/09/28 12:01:35;;;;;;;5.80;2.60;;;;;;;;;;5008320;28;20026;-76
2023/09/28 12:04:20;;;;;;;6.55;2.78;;;;;;;;;;5004368;28;20040;-77
2023/09/28 12:07:06;;;;;;;4.43;2.80;;;;;;;;;;5007388;28;20469;-77
2023/09/28 12:09:51;;;;;;;7.07;2.97;;;;;;;;;;5006184;28;20080;-79
2023/09/28 12:12:37;;;;;;;8.25;2.90;;;;;;;;;;5006385;28;20544;-77
2023/09/28 12:15:23;;;;;;;4.43;2.95;;;;;;;;;;5006026;28;20095;-76
2023/09/28 12:18:08;;;;;;;10.30;3.28;;;;;;;;;;5007805;28;20065;-71
2023/09/28 12:20:53;;;;;;;5.15;3.00;;;;;;;;;;5008759;28;20052;-69
2023/09/28 12:23:39;;;;;;;4.78;2.63;;;;;;;;;;5008600;28;20030;-69
2023/09/28 12:26:24;;;;;;;9.05;3.10;;;;;;;;;;5007626;28;20029;-69
2023/09/28 12:29:09;;;;;;;6.28;3.05;;;;;;;;;;5006981;28;20424;-68
2023/09/28 12:31:55;;;;;;;5.60;3.20;;;;;;;;;;5005736;28;20436;-68
2023/09/28 12:34:40;;;;;;;4.90;2.92;;;;;;;;;;5006647;28;20095;-72
2023/09/28 12:37:26;;;;;;;9.02;3.03;;;;;;;;;;5008959;28;20385;-71
2023/09/28 12:40:13;;;;;;;8.93;3.40;;;;;;;;;;5008630;28;20405;-75
2023/09/28 12:42:59;;;;;;;8.20;3.33;;;;;;;;;;4989336;28;20030;-75
2023/09/28 12:45:44;;;;;;;11.32;3.38;;;;;;;;;;5005193;28;20180;-76
2023/09/28 12:48:30;;;;;;;7.97;3.38;;;;;;;;;;5011340;28;20116;-75
2023/09/28 12:51:15;;;;;;;8.75;2.88;;;;;;;;;;5008526;28;20025;-76
2023/09/28 12:54:02;;;;;;;5.28;2.80;;;;;;;;;;5010042;28;20033;-69
2023/09/28 12:56:48;;;;;;;4.30;2.42;;;;;;;;;;5008274;28;20040;-72
2023/09/28 12:59:33;;;;;;;4.45;2.25;;;;;;;;;;5007814;28;20180;-72
2023/09/28 13:02:19;;;;;;;5.38;2.70;;;;;;;;;;5006705;28;20406;-72
2023/09/28 13:05:05;;;;;;;4.68;2.20;;;;;;;;;;5008740;28;20198;-72
2023/09/28 13:07:51;;;;;;;5.13;2.80;;;;;;;;;;5007782;28;20045;-72
2023/09/28 13:10:38;;;;;;;4.50;2.83;;;;;;;;;;5008058;28;20037;-73
2023/09/28 13:13:23;;;;;;;6.18;2.80;;;;;;;;;;5012080;28;20461;-67
2023/09/28 13:16:08;;;;;;;6.18;2.95;;;;;;;;;;5011812;28;20022;-78
2023/09/28 13:18:55;;;;;;;5.35;2.70;;;;;;;;;;5012160;28;20172;-77
2023/09/28 13:21:40;;;;;;;4.53;2.88;;;;;;;;;;5012534;28;20049;-77
2023/09/28 13:24:26;;;;;;;6.22;2.60;;;;;;;;;;5012490;28;20037;-77
2023/09/28 13:27:12;;;;;;;6.50;2.70;;;;;;;;;;5012079;28;20042;-78
2023/09/28 13:30:00;;;;;;;4.00;2.22;;;;;;;;;;4998320;28;20030;-68
2023/09/28 13:32:46;;;;;;;4.80;2.60;;;;;;;;;;5011830;28;20030;-67
2023/09/28 13:35:32;;;;;;;5.43;2.55;;;;;;;;;;5011841;28;20041;-77
2023/09/28 13:38:17;;;;;;;5.47;2.63;;;;;;;;;;4993114;28;20038;-76
2023/09/28 13:41:04;;;;;;;5.60;2.97;;;;;;;;;;5012001;28;20041;-77
2023/09/28 13:43:49;;;;;;;3.97;2.60;;;;;;;;;;5011822;28;20536;-77
2023/09/28 13:46:34;;;;;;;7.53;3.25;;;;;;;;;;5013702;28;20088;-77
2023/09/28 13:49:21;;;;;;;4.70;2.28;;;;;;;;;;5000328;28;20493;-69
2023/09/28 13:52:08;;;;;;;4.45;2.42;;;;;;;;;;5011518;28;20041;-69
2023/09/28 13:54:53;;;;;;;5.63;3.28;;;;;;;;;;5012745;28;20041;-72
2023/09/28 13:57:39;;;;;;;8.40;3.10;;;;;;;;;;5011699;28;20377;-70
2023/09/28 14:03:12;;;;;;;6.13;2.80;;;;;;;;;;5011236;28;20037;-70
2023/09/28 14:05:58;;;;;;;4.75;2.22;;;;;;;;;;5011584;28;20139;-70
2023/09/28 14:08:43;;;;;;;4.53;2.78;;;;;;;;;;5011710;28;20049;-73
2023/09/28 14:11:29;;;;;;;5.55;3.03;;;;;;;;;;4995852;28;20088;-77
2023/09/28 14:14:14;;;;;;;7.13;2.63;;;;;;;;;;5011242;28;20041;-79
2023/09/28 14:17:03;;;;;;;6.72;3.40;;;;;;;;;;5011200;28;20068;-77
2023/09/28 14:19:49;;;;;;;11.50;3.65;;;;;;;;;;5011164;28;20120;-78
2023/09/28 14:22:34;;;;;;;5.03;2.67;;;;;;;;;;5011215;28;20281;-80
2023/09/28 14:25:19;;;;;;;5.55;2.45;;;;;;;;;;5010432;28;20033;-73
2023/09/28 14:28:05;;;;;;;3.70;2.22;;;;;;;;;;5010948;28;20092;-74
2023/09/28 14:30:50;;;;;;;4.32;2.22;;;;;;;;;;5010862;28;20118;-75
2023/09/28 14:33:36;;;;;;;5.97;2.50;;;;;;;;;;5010535;28;20022;-72
2023/09/28 14:36:22;;;;;;;3.40;2.08;;;;;;;;;;5010648;28;20049;-74
2023/09/28 14:39:07;;;;;;;4.05;2.60;;;;;;;;;;5010433;28;20029;-74
2023/09/28 14:41:52;;;;;;;5.55;2.85;;;;;;;;;;5009989;28;20051;-73
2023/09/28 14:44:37;;;;;;;3.75;2.25;;;;;;;;;;5010334;28;20381;-78
2023/09/28 14:47:23;;;;;;;2.25;1.80;;;;;;;;;;5013090;28;20103;-69
2023/09/28 14:50:09;;;;;;;4.18;2.47;;;;;;;;;;5010445;28;20033;-68
2023/09/28 14:52:55;;;;;;;4.43;2.30;;;;;;;;;;5010780;28;20041;-69
2023/09/28 14:55:41;;;;;;;4.57;1.98;;;;;;;;;;5011965;28;20056;-68
2023/09/28 14:58:26;;;;;;;6.85;2.50;;;;;;;;;;5010537;28;20056;-68
2023/09/28 15:01:13;;;;;;;6.03;2.17;;;;;;;;;;5010271;28;20036;-69
2023/09/28 15:03:58;;;;;;;3.72;2.38;;;;;;;;;;5010275;28;20029;-71
2023/09/28 15:06:43;;;;;;;4.78;2.88;;;;;;;;;;5010463;28;20410;-68
2023/09/28 15:09:29;;;;;;;4.68;2.03;;;;;;;;;;5010482;28;20036;-69
2023/09/28 15:12:15;;;;;;;4.78;2.53;;;;;;;;;;5010262;28;20136;-70
2023/09/28 15:15:00;;;;;;;4.60;2.40;;;;;;;;;;5009752;28;20033;-69
2023/09/28 15:17:45;;;;;;;4.75;2.25;;;;;;;;;;5010109;28;20042;-70
2023/09/28 15:20:34;;;;;;;3.72;2.25;;;;;;;;;;5010103;28;20040;-73
2023/09/28 15:23:20;;;;;;;3.92;2.00;;;;;;;;;;5010014;28;20057;-70
2023/09/28 15:26:05;;;;;;;3.95;2.00;;;;;;;;;;5009937;28;20426;-72
2023/09/28 15:28:50;;;;;;;4.85;2.10;;;;;;;;;;5010041;28;20030;-73
2023/09/28 15:31:36;;;;;;;6.00;2.28;;;;;;;;;;5009374;28;20473;-72
2023/09/28 15:34:22;;;;;;;3.33;1.98;;;;;;;;;;5009523;28;20065;-74
2023/09/28 15:37:07;;;;;;;3.38;2.13;;;;;;;;;;4995174;28;20200;-73
2023/09/28 15:39:53;;;;;;;2.65;1.90;;;;;;;;;;5009306;28;20044;-80
2023/09/28 15:42:38;;;;;;;3.25;1.67;;;;;;;;;;5009611;28;20372;-69
2023/09/28 15:45:23;;;;;;;4.40;1.88;;;;;;;;;;5009792;28;20069;-69
2023/09/28 15:48:08;;;;;;;5.03;2.78;;;;;;;;;;4987519;28;20481;-70
2023/09/28 15:50:53;;;;;;;6.28;3.28;;;;;;;;;;4983108;28;20381;-69
2023/09/28 15:53:39;;;;;;;6.70;3.28;;;;;;;;;;5010809;28;20033;-70
2023/09/28 15:56:33;;;;;;;10.68;3.67;;;;;;;;;;5078604;27;20498;-70
2023/09/28 15:59:18;;;;;;;3.10;2.03;;;;;;;;;;5038026;28;20037;-69
2023/09/28 16:02:03;;;;;;;6.03;2.92;;;;;;;;;;5051623;28;20029;-70
2023/09/28 16:04:48;;;;;;;4.15;2.45;;;;;;;;;;5051375;28;20033;-69
2023/09/28 16:07:34;;;;;;;3.78;2.22;;;;;;;;;;5051287;28;20025;-69
2023/09/28 16:10:19;;;;;;;6.35;1.85;;;;;;;;;;5051519;28;20205;-68
2023/09/28 16:13:04;;;;;;;3.97;1.60;;;;;;;;;;5051243;28;20020;-69
2023/09/28 16:15:50;;;;;;;6.72;1.73;;;;;;;;;;5052903;28;20112;-72
2023/09/28 16:18:36;;;;;;;4.57;2.08;;;;;;;;;;5037658;28;20059;-69
2023/09/28 16:21:21;;;;;;;4.60;3.25;;;;;;;;;;5050915;28;20032;-70
2023/09/28 16:24:08;;;;;;;4.65;3.10;;;;;;;;;;5051115;28;20023;-70
2023/09/28 16:26:53;;;;;;;6.85;3.63;;;;;;;;;;5050657;28;20032;-70
2023/09/28 16:29:39;;;;;;;9.52;3.22;;;;;;;;;;5064555;28;20037;-70
2023/09/28 16:32:24;;;;;;;8.90;3.28;;;;;;;;;;5053888;28;20085;-70
2023/09/28 16:35:10;;;;;;;5.40;2.92;;;;;;;;;;5064464;28;20043;-72